createdAt,value
2023-03-02T00:02:00.836Z,5.80
2023-03-02T00:05:11.034Z,6.10
2023-03-02T00:08:14.366Z,6.50
2023-03-02T00:11:15.779Z,6.80
2023-03-02T00:14:19.793Z,5.60
2023-03-02T00:17:20.916Z,5.70
2023-03-02T00:20:24.803Z,5.50
2023-03-02T00:23:24.849Z,5.00
2023-03-02T00:26:20.113Z,5.40
2023-03-02T00:29:19.949Z,5.50
2023-03-02T00:32:23.974Z,5.00
2023-03-02T00:35:23.828Z,5.10
2023-03-02T00:38:23.915Z,4.90
2023-03-02T00:41:27.862Z,5.10
2023-03-02T00:44:27.878Z,5.10
2023-03-02T00:47:28.832Z,5.30
2023-03-02T00:50:28.883Z,5.10
2023-03-02T00:53:36.944Z,5.40
2023-03-02T00:56:37.831Z,5.60
2023-03-02T00:59:40.891Z,4.60
2023-03-02T01:02:54.024Z,4.90
2023-03-02T01:05:55.882Z,4.40
2023-03-02T01:08:56.849Z,5.20
2023-03-02T01:12:04.184Z,4.90
2023-03-02T01:15:04.941Z,4.60
2023-03-02T01:18:04.882Z,5.00
2023-03-02T01:21:14.899Z,4.30
2023-03-02T01:24:16.915Z,4.70
2023-03-02T01:27:17.909Z,4.90
2023-03-02T01:30:17.917Z,3.70
2023-03-02T01:33:18.912Z,4.40
2023-03-02T01:36:20.910Z,4.30
2023-03-02T01:39:22.928Z,4.30
2023-03-02T01:42:25.141Z,4.20
2023-03-02T01:46:01.990Z,4.20
2023-03-02T01:52:29.936Z,5.40
2023-03-02T01:55:33.961Z,5.50
2023-03-02T01:58:40.429Z,4.30
2023-03-02T02:01:47.244Z,5.60
2023-03-02T02:04:48.016Z,5.60
2023-03-02T02:07:52.258Z,5.90
2023-03-02T02:10:51.968Z,5.80
2023-03-02T02:13:54.029Z,6.00
2023-03-02T02:16:58.127Z,4.70
2023-03-02T02:20:15.977Z,5.10
2023-03-02T02:23:40.160Z,5.10
2023-03-02T02:26:54.008Z,5.70
2023-03-02T02:29:59.058Z,5.50
2023-03-02T02:32:59.073Z,6.00
2023-03-02T02:35:59.016Z,4.80
2023-03-02T02:39:03.015Z,5.30
2023-03-02T02:42:04.257Z,6.80
2023-03-02T02:45:05.060Z,6.00
2023-03-02T02:48:12.132Z,6.20
2023-03-02T02:51:14.066Z,6.00
2023-03-02T02:54:15.044Z,8.40
2023-03-02T02:57:15.031Z,9.20
2023-03-02T03:00:15.411Z,9.10
2023-03-02T03:03:38.182Z,9.40
2023-03-02T03:09:49.197Z,8.70
2023-03-02T03:13:05.452Z,8.30
2023-03-02T03:16:06.049Z,7.50
2023-03-02T03:19:08.217Z,5.90
2023-03-02T03:22:11.120Z,6.20
2023-03-02T03:25:12.314Z,6.30
2023-03-02T03:28:15.388Z,6.20
2023-03-02T03:31:16.321Z,5.50
2023-03-02T03:34:18.124Z,6.20
2023-03-02T03:37:18.188Z,5.80
2023-03-02T03:40:24.110Z,4.90
2023-03-02T03:43:25.142Z,4.60
2023-03-02T03:46:27.142Z,4.50
2023-03-02T03:49:29.616Z,3.60
2023-03-02T03:52:36.156Z,3.70
2023-03-02T03:55:42.087Z,4.00
2023-03-02T03:58:44.243Z,4.20
2023-03-02T04:02:07.134Z,4.20
2023-03-02T04:05:12.132Z,4.70
2023-03-02T04:08:13.152Z,4.00
2023-03-02T04:11:14.286Z,4.20
2023-03-02T04:14:15.175Z,4.80
2023-03-02T04:17:16.164Z,5.00
2023-03-02T04:20:18.351Z,5.20
2023-03-02T04:23:21.231Z,5.40
2023-03-02T04:26:22.197Z,4.30
2023-03-02T04:29:23.257Z,4.70
2023-03-02T04:32:26.760Z,5.10
2023-03-02T04:35:28.328Z,5.20
2023-03-02T04:38:28.304Z,5.50
2023-03-02T04:41:28.221Z,5.50
2023-03-02T04:44:28.282Z,4.80
2023-03-02T04:47:29.258Z,5.20
2023-03-02T04:50:34.235Z,5.20
2023-03-02T04:53:37.507Z,5.60
2023-03-02T04:56:37.339Z,5.40
2023-03-02T04:59:39.570Z,5.70
2023-03-02T05:02:40.326Z,5.60
2023-03-02T05:05:41.234Z,6.20
2023-03-02T05:08:41.278Z,5.90
2023-03-02T05:11:43.292Z,7.00
2023-03-02T05:14:37.409Z,6.30
2023-03-02T05:17:40.317Z,6.40
2023-03-02T05:20:40.259Z,7.10
2023-03-02T05:23:41.425Z,6.90
2023-03-02T05:26:47.321Z,9.60
2023-03-02T05:29:47.418Z,8.20
2023-03-02T05:32:47.289Z,7.70
2023-03-02T05:35:49.568Z,7.60
2023-03-02T05:38:49.329Z,7.20
2023-03-02T05:41:50.404Z,7.50
2023-03-02T05:44:50.318Z,6.50
2023-03-02T05:47:54.446Z,7.20
2023-03-02T05:50:54.351Z,7.10
2023-03-02T05:53:57.359Z,6.50
2023-03-02T05:56:57.394Z,5.90
2023-03-02T05:59:59.426Z,5.70
2023-03-02T06:03:27.080Z,7.00
2023-03-02T06:06:36.679Z,6.10
2023-03-02T06:09:32.465Z,6.40
2023-03-02T06:12:34.347Z,6.90
2023-03-02T06:15:37.420Z,7.40
2023-03-02T06:18:43.350Z,8.80
2023-03-02T06:21:46.742Z,7.50
2023-03-02T06:24:46.610Z,6.90
2023-03-02T06:27:47.662Z,7.10
2023-03-02T06:30:55.977Z,7.60
2023-03-02T06:33:59.503Z,7.50
2023-03-02T06:37:01.427Z,8.20
2023-03-02T06:40:12.392Z,8.30
2023-03-02T06:43:15.484Z,8.30
2023-03-02T06:46:21.309Z,8.00
2023-03-02T06:49:24.421Z,8.00
2023-03-02T06:52:26.527Z,6.50
2023-03-02T06:55:28.492Z,6.80
2023-03-02T06:58:42.417Z,5.60
2023-03-02T07:01:46.484Z,6.60
2023-03-02T07:04:50.614Z,6.50
2023-03-02T07:07:52.541Z,6.30
2023-03-02T07:10:57.562Z,5.70
2023-03-02T07:14:02.946Z,6.40
2023-03-02T07:17:09.578Z,6.20
2023-03-02T07:20:11.563Z,6.70
2023-03-02T07:23:23.159Z,6.40
2023-03-02T07:26:25.670Z,6.30
2023-03-02T07:29:40.391Z,6.20
2023-03-02T07:33:01.283Z,5.90
2023-03-02T07:36:11.629Z,6.60
2023-03-02T07:39:22.667Z,5.40
2023-03-02T07:42:28.761Z,5.50
2023-03-02T07:45:35.594Z,5.60
2023-03-02T07:48:37.633Z,5.60
2023-03-02T07:51:38.635Z,5.30
2023-03-02T07:54:42.788Z,6.50
2023-03-02T07:57:45.599Z,5.80
2023-03-02T08:00:47.657Z,5.40
2023-03-02T08:03:49.811Z,4.10
2023-03-02T08:06:51.608Z,5.20
2023-03-02T08:12:56.753Z,6.30
2023-03-02T08:16:06.701Z,5.80
2023-03-02T08:19:07.944Z,5.70
2023-03-02T08:22:14.963Z,5.00
2023-03-02T08:25:22.878Z,5.80
2023-03-02T08:28:24.640Z,5.30
2023-03-02T08:31:26.072Z,6.00
2023-03-02T08:34:30.075Z,5.80
2023-03-02T08:37:32.657Z,5.50
2023-03-02T08:40:35.696Z,5.40
2023-03-02T08:43:36.725Z,5.70
2023-03-02T08:46:39.680Z,6.30
2023-03-02T08:49:45.082Z,5.40
2023-03-02T08:52:46.763Z,5.40
2023-03-02T08:55:49.941Z,4.90
2023-03-02T08:58:53.935Z,5.30
2023-03-02T09:01:59.078Z,4.90
2023-03-02T09:05:03.297Z,5.20
2023-03-02T09:08:09.702Z,5.00
2023-03-02T09:11:13.827Z,4.60
2023-03-02T09:14:14.779Z,4.70
2023-03-02T09:17:24.918Z,5.40
2023-03-02T09:20:31.233Z,5.10
2023-03-02T09:23:32.809Z,5.90
2023-03-02T09:26:40.058Z,5.40
2023-03-02T09:29:42.365Z,5.10
2023-03-02T09:32:43.638Z,5.80
2023-03-02T09:39:15.871Z,4.80
2023-03-02T09:42:20.011Z,5.00
2023-03-02T09:45:49.886Z,5.70
2023-03-02T09:49:23.979Z,5.00
2023-03-02T09:52:51.242Z,4.90
2023-03-02T09:55:59.943Z,5.70
2023-03-02T09:59:20.503Z,4.80
2023-03-02T10:02:52.672Z,5.20
2023-03-02T10:06:00.300Z,5.00
2023-03-02T10:09:06.147Z,4.40
2023-03-02T10:12:24.786Z,4.70
2023-03-02T10:15:30.840Z,5.90
2023-03-02T10:18:38.129Z,4.50
2023-03-02T10:21:55.106Z,4.90
2023-03-02T10:25:40.028Z,4.40
2023-03-02T10:28:45.834Z,4.50
2023-03-02T10:32:01.115Z,4.00
2023-03-02T10:35:13.147Z,3.90
2023-03-02T10:38:26.418Z,4.80
2023-03-02T10:41:35.565Z,5.50
2023-03-02T10:44:58.819Z,5.20
2023-03-02T10:48:27.482Z,5.00
2023-03-02T10:51:54.409Z,4.60
2023-03-02T10:55:05.064Z,4.70
2023-03-02T10:58:39.592Z,4.60
2023-03-02T11:01:50.845Z,4.50
2023-03-02T11:04:58.705Z,4.10
2023-03-02T11:12:33.582Z,5.40
2023-03-02T11:15:48.021Z,4.50
2023-03-02T11:18:53.029Z,4.00
2023-03-02T11:22:35.721Z,4.30
2023-03-02T11:25:54.726Z,5.00
2023-03-02T11:29:02.025Z,4.70
2023-03-02T11:32:31.633Z,4.20
2023-03-02T11:35:43.497Z,4.40
2023-03-02T11:39:15.990Z,4.00
2023-03-02T11:42:28.535Z,3.40
2023-03-02T11:45:54.458Z,3.50
2023-03-02T11:49:03.699Z,4.40
2023-03-02T11:52:12.012Z,3.70
2023-03-02T11:55:29.001Z,3.30
2023-03-02T11:58:43.553Z,2.90
2023-03-02T12:01:46.193Z,3.70
2023-03-02T12:04:51.082Z,2.50
2023-03-02T12:08:00.702Z,3.20
2023-03-02T12:11:43.580Z,3.20
2023-03-02T12:14:52.042Z,3.20
2023-03-02T12:18:01.606Z,3.40
2023-03-02T12:21:29.275Z,3.40
2023-03-02T12:24:59.162Z,3.50
2023-03-02T12:28:04.683Z,3.30
2023-03-02T12:31:22.647Z,3.10
2023-03-02T12:34:48.065Z,3.60
2023-03-02T12:38:08.223Z,6.80
2023-03-02T12:41:45.960Z,5.30
2023-03-02T12:45:12.817Z,4.10
2023-03-02T12:48:46.827Z,3.40
2023-03-02T12:52:03.281Z,3.10
2023-03-02T12:55:12.122Z,3.30
2023-03-02T12:58:14.818Z,4.00
2023-03-02T13:01:15.438Z,4.10
2023-03-02T13:04:24.740Z,4.40
2023-03-02T13:07:35.154Z,4.40
2023-03-02T13:11:01.506Z,3.40
2023-03-02T13:14:05.160Z,4.20
2023-03-02T13:17:11.790Z,3.50
2023-03-02T13:23:40.263Z,3.00
2023-03-02T13:26:48.571Z,3.50
2023-03-02T13:29:50.218Z,4.10
2023-03-02T13:33:04.567Z,4.80
2023-03-02T13:36:10.226Z,4.60
2023-03-02T13:39:13.230Z,3.40
2023-03-02T13:42:22.399Z,3.60
2023-03-02T13:45:45.396Z,5.50
2023-03-02T13:52:19.257Z,4.70
2023-03-02T13:55:28.254Z,4.00
2023-03-02T13:58:31.511Z,4.20
2023-03-02T14:01:32.642Z,3.90
2023-03-02T14:04:34.329Z,3.30
2023-03-02T14:07:35.857Z,2.80
2023-03-02T14:10:37.240Z,3.50
2023-03-02T14:13:44.435Z,3.20
2023-03-02T14:16:44.241Z,3.50
2023-03-02T14:31:24.808Z,2.40
2023-03-02T14:34:28.068Z,3.40
2023-03-02T14:37:32.080Z,3.30
2023-03-02T14:40:39.843Z,2.50
2023-03-02T14:43:39.932Z,2.30
2023-03-02T14:46:40.837Z,3.70
2023-03-02T14:49:40.894Z,3.60
2023-03-02T14:53:01.086Z,3.90
2023-03-02T14:56:02.811Z,3.80
2023-03-02T14:59:05.799Z,3.20
2023-03-02T15:02:19.056Z,2.70
2023-03-02T15:05:33.769Z,2.90
2023-03-02T15:08:36.793Z,3.90
2023-03-02T15:11:37.765Z,4.30
2023-03-02T15:14:43.954Z,4.10
2023-03-02T15:17:47.069Z,4.60
2023-03-02T15:20:51.160Z,4.50
2023-03-02T15:23:52.813Z,4.30
2023-03-02T15:26:59.886Z,4.40
2023-03-02T15:30:00.877Z,4.20
2023-03-02T15:33:04.879Z,4.20
2023-03-02T15:36:06.881Z,3.90
2023-03-02T15:39:07.889Z,4.00
2023-03-02T15:42:10.809Z,4.20
2023-03-02T15:45:16.210Z,3.80
2023-03-02T15:48:16.970Z,3.80
2023-03-02T15:51:23.082Z,4.00
2023-03-02T15:54:23.846Z,4.60
2023-03-02T15:57:25.383Z,4.60
2023-03-02T16:00:31.290Z,4.60
2023-03-02T16:03:25.946Z,3.60
2023-03-02T16:06:26.999Z,5.70
2023-03-02T16:09:28.330Z,5.70
2023-03-02T16:12:41.607Z,6.20
2023-03-02T16:16:23.077Z,6.60
2023-03-02T16:19:31.709Z,8.00
2023-03-02T16:22:33.070Z,7.60
2023-03-02T16:25:53.269Z,8.20
2023-03-02T16:28:57.700Z,8.90
2023-03-02T16:32:10.316Z,7.00
2023-03-02T16:35:15.136Z,4.60
2023-03-02T16:38:16.075Z,4.70
2023-03-02T16:41:17.228Z,4.50
2023-03-02T16:44:18.016Z,4.60
2023-03-02T16:47:21.115Z,4.90
2023-03-02T16:50:21.112Z,4.00
2023-03-02T16:53:21.332Z,4.70
2023-03-02T16:56:22.108Z,4.70
2023-03-02T16:59:23.163Z,5.30
2023-03-02T17:02:26.960Z,5.30
2023-03-02T17:05:34.040Z,5.70
2023-03-02T17:08:39.915Z,5.50
2023-03-02T17:11:42.987Z,5.30
2023-03-02T17:14:50.960Z,4.50
2023-03-02T17:17:55.000Z,4.60
2023-03-02T17:20:56.981Z,3.80
2023-03-02T17:23:59.999Z,4.70
2023-03-02T17:27:08.593Z,4.10
2023-03-02T17:30:20.030Z,6.70
2023-03-02T17:33:23.011Z,5.30
2023-03-02T17:36:23.011Z,4.30
2023-03-02T17:39:24.028Z,4.80
2023-03-02T17:42:25.074Z,4.40
2023-03-02T17:45:32.766Z,4.90
2023-03-02T17:48:36.058Z,5.90
2023-03-02T17:52:06.102Z,5.90
2023-03-02T17:55:13.074Z,4.60
2023-03-02T17:58:20.463Z,5.80
2023-03-02T18:01:22.096Z,5.50
2023-03-02T18:04:27.160Z,7.00
2023-03-02T18:07:28.428Z,5.30
2023-03-02T18:10:33.097Z,5.70
2023-03-02T18:13:34.216Z,5.20
2023-03-02T18:16:36.127Z,5.50
2023-03-02T18:19:37.056Z,5.80
2023-03-02T18:22:38.137Z,5.30
2023-03-02T18:25:44.241Z,5.70
2023-03-02T18:28:46.169Z,6.00
2023-03-02T18:31:46.230Z,5.80
2023-03-02T18:34:52.136Z,5.50
2023-03-02T18:37:52.236Z,5.60
2023-03-02T18:40:53.416Z,5.60
2023-03-02T18:43:54.189Z,5.60
2023-03-02T18:46:56.029Z,6.00
2023-03-02T18:50:00.409Z,7.00
2023-03-02T18:53:00.224Z,8.80
2023-03-02T18:56:02.283Z,9.10
2023-03-02T18:59:03.165Z,11.10
2023-03-02T19:02:04.234Z,9.30
2023-03-02T19:05:04.600Z,9.40
2023-03-02T19:08:08.222Z,10.90
2023-03-02T19:11:12.152Z,10.20
2023-03-02T19:14:17.240Z,9.80
2023-03-02T19:17:22.196Z,11.10
2023-03-02T19:20:30.407Z,12.00
2023-03-02T19:26:35.203Z,10.80
2023-03-02T19:29:40.446Z,10.50
2023-03-02T19:32:43.240Z,10.80
2023-03-02T19:35:46.630Z,12.60
2023-03-02T19:38:55.221Z,11.90
2023-03-02T19:41:56.276Z,13.00
2023-03-02T19:45:00.585Z,12.40
2023-03-02T19:48:01.240Z,11.50
2023-03-02T19:51:19.391Z,11.80
2023-03-02T19:54:32.573Z,11.50
2023-03-02T19:57:51.888Z,10.90
2023-03-02T20:00:55.865Z,11.70
2023-03-02T20:04:04.332Z,11.20
2023-03-02T20:07:11.040Z,11.20
2023-03-02T20:10:18.903Z,11.40
2023-03-02T20:13:21.545Z,14.00
2023-03-02T20:16:21.344Z,14.40
2023-03-02T20:19:27.338Z,13.40
2023-03-02T20:22:27.264Z,12.30
2023-03-02T20:25:28.374Z,12.60
2023-03-02T20:28:30.379Z,13.60
2023-03-02T20:31:33.455Z,13.60
2023-03-02T20:34:34.393Z,13.40
2023-03-02T20:37:34.430Z,15.70
2023-03-02T20:40:34.368Z,13.30
2023-03-02T20:46:43.301Z,16.40
2023-03-02T20:49:44.524Z,14.10
2023-03-02T20:55:48.338Z,11.30
2023-03-02T20:58:50.878Z,12.60
2023-03-02T21:01:53.368Z,13.00
2023-03-02T21:04:56.185Z,13.40
2023-03-02T21:07:59.106Z,12.30
2023-03-02T21:11:00.449Z,11.80
2023-03-02T21:14:02.415Z,10.90
2023-03-02T21:17:05.513Z,10.50
2023-03-02T21:20:06.430Z,9.90
2023-03-02T21:23:08.580Z,10.50
2023-03-02T21:26:09.422Z,10.00
2023-03-02T21:29:11.549Z,8.50
2023-03-02T21:32:13.598Z,10.60
2023-03-02T21:35:16.399Z,10.80
2023-03-02T21:41:20.870Z,10.70
2023-03-02T21:44:21.532Z,9.90
2023-03-02T21:47:21.514Z,10.60
2023-03-02T21:50:53.629Z,10.70
2023-03-02T21:56:57.484Z,9.40
2023-03-02T22:00:00.512Z,10.50
2023-03-02T22:03:03.665Z,10.60
2023-03-02T22:06:04.490Z,9.40
2023-03-02T22:09:04.684Z,10.60
2023-03-02T22:12:04.801Z,10.70
2023-03-02T22:15:10.440Z,10.90
2023-03-02T22:18:15.484Z,10.50
2023-03-02T22:21:42.543Z,11.50
2023-03-02T22:24:48.222Z,10.50
2023-03-02T22:27:49.537Z,11.20
2023-03-02T22:30:49.499Z,10.40
2023-03-02T22:33:54.970Z,13.20
2023-03-02T22:37:00.682Z,10.50
2023-03-02T22:40:00.499Z,11.30
2023-03-02T22:43:07.504Z,10.50
2023-03-02T22:46:29.517Z,9.90
2023-03-02T22:49:31.635Z,11.00
2023-03-02T22:52:35.735Z,11.80
2023-03-02T22:55:56.586Z,10.70
2023-03-02T22:59:03.880Z,11.90
2023-03-02T23:02:13.888Z,9.90
2023-03-02T23:05:35.549Z,10.40
2023-03-02T23:08:43.096Z,10.80
2023-03-02T23:11:53.306Z,10.30
2023-03-02T23:15:05.546Z,10.00
2023-03-02T23:18:06.667Z,9.90
2023-03-02T23:21:07.631Z,9.50
2023-03-02T23:24:09.580Z,10.20
2023-03-02T23:27:10.765Z,9.50
2023-03-02T23:30:12.596Z,9.30
2023-03-02T23:33:13.609Z,10.50
2023-03-02T23:36:15.163Z,10.30
2023-03-02T23:39:15.675Z,8.30
2023-03-02T23:42:15.632Z,9.10
2023-03-02T23:45:18.624Z,6.60
2023-03-02T23:48:21.977Z,8.80
2023-03-02T23:51:21.754Z,9.60
2023-03-02T23:54:23.654Z,8.00
2023-03-02T23:57:23.627Z,9.10
